Time;durP1;ratioP1;P1;durP2;ratioP2;P2;SDS_P1;SDS_P2;PMS_P1;PMS_P2;Temp;Humidity;BMP_temperature;BMP_pressure;BME280_temperature;BME280_humidity;BME280_pressure;Samples;Min_cycle;Max_cycle;Signal;HPM_P1;HPM_P2
2022/01/02 00:01:51;;;;;;;19.13;1.98;;;;;;;;;;5086625;28;20028;-66
2022/01/02 00:04:19;;;;;;;3.78;0.98;;;;;;;;;;5086139;28;20024;-66
2022/01/02 00:06:48;;;;;;;7.93;1.08;;;;;;;;;;5085970;28;20059;-66
2022/01/02 00:09:35;;;;;;;7.93;1.20;;;;;;;;;;5085495;28;20048;-65
2022/01/02 00:12:13;;;;;;;10.13;1.95;;;;;;;;;;5085466;28;20028;-65
2022/01/02 00:14:44;;;;;;;7.28;1.38;;;;;;;;;;5086438;28;20024;-64
2022/01/02 00:17:12;;;;;;;7.80;1.38;;;;;;;;;;5086360;28;20031;-65
2022/01/02 00:19:41;;;;;;;6.80;1.10;;;;;;;;;;5086248;28;20032;-66
2022/01/02 00:22:15;;;;;;;9.70;1.42;;;;;;;;;;5084658;28;20035;-64
2022/01/02 00:24:43;;;;;;;10.30;1.27;;;;;;;;;;5085907;28;20021;-65
2022/01/02 00:27:11;;;;;;;5.88;1.30;;;;;;;;;;5086050;28;20042;-62
2022/01/02 00:29:39;;;;;;;6.75;1.00;;;;;;;;;;5085915;28;20024;-62
2022/01/02 00:32:07;;;;;;;5.90;1.75;;;;;;;;;;5085793;28;20105;-61
2022/01/02 00:34:38;;;;;;;4.47;1.00;;;;;;;;;;5084068;28;20081;-62
2022/01/02 00:37:06;;;;;;;7.95;1.60;;;;;;;;;;5086033;28;20028;-62
2022/01/02 00:39:33;;;;;;;10.48;2.05;;;;;;;;;;5085233;28;20048;-61
2022/01/02 00:42:07;;;;;;;11.57;1.98;;;;;;;;;;5079621;28;20031;-62
2022/01/02 00:44:43;;;;;;;7.70;1.85;;;;;;;;;;5071833;28;20025;-62
2022/01/02 00:47:13;;;;;;;9.00;1.40;;;;;;;;;;5070306;28;20032;-62
2022/01/02 00:49:41;;;;;;;12.90;1.33;;;;;;;;;;5072007;28;20425;-62
2022/01/02 00:52:12;;;;;;;7.88;1.65;;;;;;;;;;5071925;28;20024;-62
2022/01/02 00:54:40;;;;;;;13.70;1.67;;;;;;;;;;5072317;28;20025;-62
2022/01/02 00:57:10;;;;;;;16.15;2.08;;;;;;;;;;5070992;28;20041;-60
2022/01/02 00:59:47;;;;;;;9.85;1.80;;;;;;;;;;5070168;28;20521;-61
2022/01/02 01:02:19;;;;;;;11.82;1.80;;;;;;;;;;5070551;28;20058;-63
2022/01/02 01:04:48;;;;;;;13.05;1.92;;;;;;;;;;5071528;28;20024;-62
2022/01/02 01:07:15;;;;;;;12.73;2.08;;;;;;;;;;5071736;28;20025;-62
2022/01/02 01:09:42;;;;;;;9.98;1.45;;;;;;;;;;5070242;28;20055;-62
2022/01/02 01:12:10;;;;;;;9.38;1.88;;;;;;;;;;5070774;28;20540;-61
2022/01/02 01:14:37;;;;;;;12.10;2.35;;;;;;;;;;5070821;28;20066;-62
2022/01/02 01:17:05;;;;;;;10.48;1.77;;;;;;;;;;5069977;28;20027;-63
2022/01/02 01:19:32;;;;;;;16.27;2.05;;;;;;;;;;5071479;28;20024;-62
2022/01/02 01:21:59;;;;;;;11.15;1.85;;;;;;;;;;5068773;28;20119;-62
2022/01/02 01:24:26;;;;;;;11.05;1.40;;;;;;;;;;5070664;28;20518;-62
2022/01/02 01:26:56;;;;;;;14.15;1.65;;;;;;;;;;5071747;28;20102;-62
2022/01/02 01:29:23;;;;;;;15.75;2.33;;;;;;;;;;5071244;28;20033;-62
2022/01/02 01:31:50;;;;;;;10.15;1.65;;;;;;;;;;5071088;28;20044;-65
2022/01/02 01:34:17;;;;;;;9.75;1.45;;;;;;;;;;5068238;28;20033;-62
2022/01/02 01:36:44;;;;;;;11.98;1.75;;;;;;;;;;5070986;28;20085;-66
2022/01/02 01:39:11;;;;;;;12.55;1.70;;;;;;;;;;5071174;28;20017;-65
2022/01/02 01:41:39;;;;;;;10.18;2.53;;;;;;;;;;5070882;28;20162;-65
2022/01/02 01:44:38;;;;;;;7.57;1.75;;;;;;;;;;5071319;28;20029;-64
2022/01/02 01:46:55;;;;;;;10.70;1.50;;;;;;;;;;5068952;28;20035;-64
2022/01/02 01:49:26;;;;;;;10.88;1.83;;;;;;;;;;5071070;28;20162;-65
2022/01/02 01:51:53;;;;;;;12.10;2.17;;;;;;;;;;5071388;28;20028;-65
2022/01/02 01:54:20;;;;;;;13.63;2.28;;;;;;;;;;5068805;28;20020;-65
2022/01/02 01:56:49;;;;;;;9.30;1.83;;;;;;;;;;5070421;28;20028;-61
2022/01/02 01:59:17;;;;;;;13.32;2.28;;;;;;;;;;5069575;28;20024;-64
2022/01/02 02:01:44;;;;;;;10.07;1.90;;;;;;;;;;5070778;28;20032;-61
2022/01/02 02:04:11;;;;;;;10.10;1.77;;;;;;;;;;5071247;28;20028;-64
2022/01/02 02:06:38;;;;;;;10.15;2.30;;;;;;;;;;5070662;28;20024;-65
2022/01/02 02:09:05;;;;;;;5.65;1.25;;;;;;;;;;5069984;28;20033;-64
2022/01/02 02:11:35;;;;;;;8.70;1.50;;;;;;;;;;5069433;28;20035;-63
2022/01/02 02:14:04;;;;;;;6.35;1.70;;;;;;;;;;5070503;28;20055;-64
2022/01/02 02:16:31;;;;;;;5.15;1.48;;;;;;;;;;5070462;28;20525;-62
2022/01/02 02:18:58;;;;;;;12.68;2.00;;;;;;;;;;5070658;28;20132;-64
2022/01/02 02:21:36;;;;;;;11.80;1.70;;;;;;;;;;5069567;28;20033;-63
2022/01/02 02:24:04;;;;;;;6.43;1.33;;;;;;;;;;5069748;28;20044;-63
2022/01/02 02:26:34;;;;;;;7.85;1.65;;;;;;;;;;5070278;28;20032;-64
2022/01/02 02:29:02;;;;;;;6.90;1.63;;;;;;;;;;5070136;28;20020;-66
2022/01/02 02:31:29;;;;;;;11.25;1.98;;;;;;;;;;5070368;28;20492;-64
2022/01/02 02:33:56;;;;;;;7.88;1.65;;;;;;;;;;5067254;28;20020;-65
2022/01/02 02:36:23;;;;;;;11.15;1.83;;;;;;;;;;5069929;28;20020;-65
2022/01/02 02:38:50;;;;;;;10.88;1.42;;;;;;;;;;5070055;28;20383;-64
2022/01/02 02:41:17;;;;;;;7.57;1.77;;;;;;;;;;5070012;28;20031;-64
2022/01/02 02:43:55;;;;;;;15.68;2.58;;;;;;;;;;5070178;28;20025;-63
2022/01/02 02:49:07;;;;;;;10.98;1.30;;;;;;;;;;5070221;28;20097;-64
2022/01/02 02:51:43;;;;;;;10.32;2.17;;;;;;;;;;5070147;28;20044;-63
2022/01/02 02:54:11;;;;;;;8.57;1.98;;;;;;;;;;5069645;28;20423;-65
2022/01/02 02:56:57;;;;;;;7.85;2.13;;;;;;;;;;5069901;28;20056;-62
2022/01/02 02:59:26;;;;;;;7.85;1.42;;;;;;;;;;5067897;28;20487;-65
2022/01/02 03:01:53;;;;;;;8.57;1.50;;;;;;;;;;5069785;28;20016;-65
2022/01/02 03:04:21;;;;;;;9.93;1.98;;;;;;;;;;5069634;28;20059;-64
2022/01/02 03:06:48;;;;;;;12.90;1.98;;;;;;;;;;5069472;28;20064;-64
2022/01/02 03:09:24;;;;;;;13.48;1.92;;;;;;;;;;5068448;28;20052;-61
2022/01/02 03:11:51;;;;;;;6.35;1.45;;;;;;;;;;5068470;28;20031;-61
2022/01/02 03:14:18;;;;;;;8.55;1.60;;;;;;;;;;5069115;28;20029;-61
2022/01/02 03:16:45;;;;;;;5.35;1.75;;;;;;;;;;5068091;28;20427;-62
2022/01/02 03:19:12;;;;;;;7.88;1.67;;;;;;;;;;5068246;28;20017;-61
2022/01/02 03:21:39;;;;;;;10.23;1.73;;;;;;;;;;5067868;28;20106;-61
2022/01/02 03:24:06;;;;;;;7.50;1.70;;;;;;;;;;5068791;28;20032;-61
2022/01/02 03:26:33;;;;;;;8.50;1.60;;;;;;;;;;5069300;28;20047;-62
2022/01/02 03:29:00;;;;;;;7.30;1.77;;;;;;;;;;5069075;28;20059;-61
2022/01/02 03:31:27;;;;;;;11.52;1.50;;;;;;;;;;5069308;28;20053;-61
2022/01/02 03:33:54;;;;;;;7.07;1.45;;;;;;;;;;5067477;28;20029;-62
2022/01/02 03:36:21;;;;;;;5.47;1.30;;;;;;;;;;5068931;28;20399;-61
2022/01/02 03:38:48;;;;;;;8.68;1.48;;;;;;;;;;5069004;28;20052;-63
2022/01/02 03:41:15;;;;;;;6.20;1.63;;;;;;;;;;5069662;28;20082;-62
2022/01/02 03:43:42;;;;;;;6.43;1.38;;;;;;;;;;5069357;28;20036;-61
2022/01/02 03:46:09;;;;;;;7.90;1.52;;;;;;;;;;5067192;28;20024;-61
2022/01/02 03:48:36;;;;;;;9.13;1.75;;;;;;;;;;5068919;28;20070;-61
2022/01/02 03:51:03;;;;;;;4.93;1.40;;;;;;;;;;5069627;28;20039;-61
2022/01/02 03:53:31;;;;;;;8.43;1.60;;;;;;;;;;5070812;28;20025;-61
2022/01/02 03:55:58;;;;;;;7.32;1.40;;;;;;;;;;5071256;28;20542;-61
2022/01/02 03:58:25;;;;;;;7.93;1.10;;;;;;;;;;5067845;28;20056;-62
2022/01/02 04:00:52;;;;;;;6.78;1.50;;;;;;;;;;5070747;28;20122;-62
2022/01/02 04:03:19;;;;;;;8.50;1.52;;;;;;;;;;5070875;28;20031;-61
2022/01/02 04:05:46;;;;;;;6.28;1.30;;;;;;;;;;5070699;28;20111;-62
2022/01/02 04:08:13;;;;;;;7.93;1.25;;;;;;;;;;5070409;28;20082;-61
2022/01/02 04:10:40;;;;;;;6.93;1.60;;;;;;;;;;5067675;28;20072;-61
2022/01/02 04:13:07;;;;;;;4.75;1.30;;;;;;;;;;5070675;28;20403;-62
2022/01/02 04:15:34;;;;;;;5.85;1.48;;;;;;;;;;5070647;28;20029;-61
2022/01/02 04:18:01;;;;;;;5.90;1.20;;;;;;;;;;5073369;28;20027;-61
2022/01/02 04:20:29;;;;;;;3.85;1.35;;;;;;;;;;5074257;28;20106;-62
2022/01/02 04:22:56;;;;;;;5.18;1.25;;;;;;;;;;5071967;28;20490;-61
2022/01/02 04:25:23;;;;;;;6.72;1.38;;;;;;;;;;5074396;28;20027;-61
2022/01/02 04:27:50;;;;;;;7.68;1.50;;;;;;;;;;5074385;28;20016;-62
2022/01/02 04:30:17;;;;;;;7.28;1.60;;;;;;;;;;5074057;28;20053;-61
2022/01/02 04:32:44;;;;;;;5.10;1.40;;;;;;;;;;5074229;28;20090;-61
2022/01/02 04:35:11;;;;;;;3.65;0.95;;;;;;;;;;5072236;28;20017;-62
2022/01/02 04:37:38;;;;;;;3.75;1.02;;;;;;;;;;5074260;28;20025;-61
2022/01/02 04:40:05;;;;;;;9.88;1.00;;;;;;;;;;5072920;28;20036;-63
2022/01/02 04:42:32;;;;;;;4.85;1.30;;;;;;;;;;5074170;28;20085;-64
2022/01/02 04:44:59;;;;;;;5.18;1.10;;;;;;;;;;5073531;28;20100;-61
2022/01/02 04:47:27;;;;;;;4.28;1.23;;;;;;;;;;5072062;28;20107;-61
2022/01/02 04:49:54;;;;;;;7.10;1.33;;;;;;;;;;5073432;28;20024;-63
2022/01/02 04:52:21;;;;;;;6.30;1.33;;;;;;;;;;5073929;28;20028;-64
2022/01/02 04:54:48;;;;;;;8.52;1.23;;;;;;;;;;5073861;28;20020;-66
2022/01/02 04:57:15;;;;;;;10.18;1.92;;;;;;;;;;5073172;28;20421;-63
2022/01/02 04:59:42;;;;;;;4.20;1.23;;;;;;;;;;5071328;28;20024;-65
2022/01/02 05:02:09;;;;;;;2.67;0.93;;;;;;;;;;5073965;28;20023;-63
2022/01/02 05:04:36;;;;;;;7.25;1.10;;;;;;;;;;5073903;28;20392;-62
2022/01/02 05:07:03;;;;;;;5.80;1.33;;;;;;;;;;5074142;28;20027;-64
2022/01/02 05:09:30;;;;;;;5.35;0.90;;;;;;;;;;5072007;28;20030;-64
2022/01/02 05:11:57;;;;;;;4.43;1.10;;;;;;;;;;5071947;28;20059;-64
2022/01/02 05:14:24;;;;;;;4.82;1.05;;;;;;;;;;5073678;28;20393;-66
2022/01/02 05:16:51;;;;;;;8.27;1.20;;;;;;;;;;5073387;28;20032;-65
2022/01/02 05:19:18;;;;;;;5.18;1.00;;;;;;;;;;5072763;28;20128;-64
2022/01/02 05:21:45;;;;;;;3.45;0.80;;;;;;;;;;5071928;28;20067;-64
2022/01/02 05:24:12;;;;;;;6.90;1.20;;;;;;;;;;5072056;28;20071;-66
2022/01/02 05:26:39;;;;;;;6.13;1.02;;;;;;;;;;5073356;28;20033;-65
2022/01/02 05:29:07;;;;;;;3.70;0.82;;;;;;;;;;5072321;28;20502;-64
2022/01/02 05:31:34;;;;;;;5.65;1.08;;;;;;;;;;5072767;28;20510;-66
2022/01/02 05:34:01;;;;;;;4.22;1.10;;;;;;;;;;5071333;28;20012;-65
2022/01/02 05:36:28;;;;;;;4.57;1.08;;;;;;;;;;5072495;28;20016;-64
2022/01/02 05:38:55;;;;;;;5.10;1.15;;;;;;;;;;5072659;28;20050;-63
2022/01/02 05:41:22;;;;;;;4.47;1.10;;;;;;;;;;5070943;28;20025;-64
2022/01/02 05:43:49;;;;;;;3.03;1.17;;;;;;;;;;5072803;28;20035;-64
2022/01/02 05:46:17;;;;;;;5.68;1.10;;;;;;;;;;5070272;28;20041;-61
2022/01/02 05:48:44;;;;;;;5.90;1.25;;;;;;;;;;5072561;28;20027;-61
2022/01/02 05:51:11;;;;;;;3.80;0.90;;;;;;;;;;5072740;28;20047;-61
2022/01/02 05:53:38;;;;;;;6.22;1.05;;;;;;;;;;5072362;28;20048;-61
2022/01/02 05:56:06;;;;;;;5.75;0.90;;;;;;;;;;5072801;28;20548;-61
2022/01/02 05:58:33;;;;;;;3.15;1.17;;;;;;;;;;5070072;28;20028;-61
2022/01/02 06:01:00;;;;;;;3.63;0.75;;;;;;;;;;5072183;28;20032;-61
2022/01/02 06:03:27;;;;;;;3.92;1.17;;;;;;;;;;5072514;28;20031;-60
2022/01/02 06:05:54;;;;;;;2.72;1.00;;;;;;;;;;5071046;28;20464;-61
2022/01/02 06:08:21;;;;;;;3.47;0.98;;;;;;;;;;5072261;28;20016;-61
2022/01/02 06:10:49;;;;;;;4.88;0.98;;;;;;;;;;5069011;28;20044;-61
2022/01/02 06:13:16;;;;;;;4.00;0.80;;;;;;;;;;5071594;28;20025;-65
2022/01/02 06:15:43;;;;;;;5.07;1.02;;;;;;;;;;5070777;28;20042;-65
2022/01/02 06:18:10;;;;;;;4.55;1.50;;;;;;;;;;5072144;28;20020;-62
2022/01/02 06:20:37;;;;;;;8.43;0.75;;;;;;;;;;5071658;28;20093;-65
2022/01/02 06:23:04;;;;;;;5.72;1.45;;;;;;;;;;5069613;28;20020;-65
2022/01/02 06:25:31;;;;;;;7.13;1.73;;;;;;;;;;5072368;28;20467;-64
2022/01/02 06:27:58;;;;;;;4.78;0.80;;;;;;;;;;5072073;28;20108;-65
2022/01/02 06:30:25;;;;;;;3.03;1.00;;;;;;;;;;5070728;28;20094;-65
2022/01/02 06:32:55;;;;;;;2.03;0.85;;;;;;;;;;5071504;28;20020;-62
2022/01/02 06:35:29;;;;;;;4.55;0.80;;;;;;;;;;5070041;28;20060;-64
2022/01/02 06:37:56;;;;;;;1.90;0.73;;;;;;;;;;5071715;28;20032;-64
2022/01/02 06:40:24;;;;;;;2.53;0.77;;;;;;;;;;5070583;28;20094;-65
2022/01/02 06:42:51;;;;;;;4.30;0.93;;;;;;;;;;5071858;28;20031;-62
2022/01/02 06:45:18;;;;;;;3.20;0.60;;;;;;;;;;5070760;28;20017;-65
2022/01/02 06:47:45;;;;;;;4.05;1.33;;;;;;;;;;5070245;28;20268;-64
2022/01/02 06:50:13;;;;;;;3.75;0.90;;;;;;;;;;5071201;28;20079;-63
2022/01/02 06:52:40;;;;;;;3.33;1.10;;;;;;;;;;5070487;28;20087;-64
2022/01/02 06:55:07;;;;;;;2.78;0.80;;;;;;;;;;5071485;28;20491;-64
2022/01/02 06:57:34;;;;;;;2.85;0.82;;;;;;;;;;5070463;28;20099;-61
2022/01/02 07:00:01;;;;;;;2.70;0.80;;;;;;;;;;5069460;28;20021;-63
2022/01/02 07:02:28;;;;;;;2.88;0.73;;;;;;;;;;5071497;28;20024;-63
2022/01/02 07:04:55;;;;;;;4.97;1.10;;;;;;;;;;5071401;28;20032;-65
2022/01/02 07:07:22;;;;;;;2.80;0.73;;;;;;;;;;5071138;28;20036;-65
2022/01/02 07:09:49;;;;;;;2.40;0.73;;;;;;;;;;5069340;28;20081;-63
2022/01/02 07:12:17;;;;;;;5.75;0.80;;;;;;;;;;5069092;28;20021;-64
2022/01/02 07:14:44;;;;;;;6.30;1.23;;;;;;;;;;5071258;28;20028;-63
2022/01/02 07:17:11;;;;;;;3.70;0.80;;;;;;;;;;5071292;28;20052;-64
2022/01/02 07:19:38;;;;;;;7.03;0.88;;;;;;;;;;5071371;28;20108;-63
2022/01/02 07:22:05;;;;;;;3.90;0.65;;;;;;;;;;5068756;28;20436;-63
2022/01/02 07:24:33;;;;;;;4.78;0.90;;;;;;;;;;5070626;28;20020;-64
2022/01/02 07:27:01;;;;;;;4.65;1.08;;;;;;;;;;5070900;28;20417;-64
2022/01/02 07:29:28;;;;;;;5.00;0.98;;;;;;;;;;5071167;28;20035;-66
2022/01/02 07:31:55;;;;;;;2.78;0.80;;;;;;;;;;5050679;28;20086;-65
2022/01/02 07:34:22;;;;;;;3.03;1.00;;;;;;;;;;5049210;28;20027;-65
2022/01/02 07:36:49;;;;;;;1.95;0.70;;;;;;;;;;5050804;28;20032;-65
2022/01/02 07:39:16;;;;;;;4.20;1.00;;;;;;;;;;5050871;28;20049;-64
2022/01/02 07:41:43;;;;;;;4.45;0.70;;;;;;;;;;5050444;28;20549;-65
2022/01/02 07:44:10;;;;;;;6.18;1.30;;;;;;;;;;5051243;28;20033;-65
2022/01/02 07:46:37;;;;;;;4.90;0.95;;;;;;;;;;5048831;28;20027;-65
2022/01/02 07:49:04;;;;;;;3.03;0.90;;;;;;;;;;5050927;28;20473;-63
2022/01/02 07:51:31;;;;;;;4.15;0.80;;;;;;;;;;5050366;28;20040;-66
2022/01/02 07:54:00;;;;;;;4.38;1.05;;;;;;;;;;5054989;28;20384;-64
2022/01/02 07:56:27;;;;;;;1.73;0.70;;;;;;;;;;5055026;28;20025;-63
2022/01/02 07:58:57;;;;;;;4.05;0.90;;;;;;;;;;5052735;28;20439;-65
2022/01/02 08:01:24;;;;;;;2.45;0.70;;;;;;;;;;5053930;28;20482;-66
2022/01/02 08:03:52;;;;;;;8.35;1.00;;;;;;;;;;5054623;28;20017;-63
2022/01/02 08:06:19;;;;;;;6.80;1.20;;;;;;;;;;5054845;28;20021;-66
2022/01/02 08:08:46;;;;;;;3.72;0.90;;;;;;;;;;5054474;28;20036;-65
2022/01/02 08:11:17;;;;;;;3.35;1.00;;;;;;;;;;5052164;28;20463;-64
2022/01/02 08:13:45;;;;;;;3.78;0.80;;;;;;;;;;5054147;28;20025;-66
2022/01/02 08:16:12;;;;;;;5.57;0.98;;;;;;;;;;5054486;28;20096;-65
2022/01/02 08:18:40;;;;;;;2.45;0.70;;;;;;;;;;5053078;28;20433;-64
2022/01/02 08:21:08;;;;;;;4.43;0.82;;;;;;;;;;5053057;28;20108;-64
2022/01/02 08:23:35;;;;;;;5.05;1.10;;;;;;;;;;5052668;28;20033;-64
2022/01/02 08:26:03;;;;;;;2.80;0.90;;;;;;;;;;5054024;28;20025;-62
2022/01/02 08:28:30;;;;;;;4.65;1.38;;;;;;;;;;5054135;28;20029;-61
2022/01/02 08:30:57;;;;;;;4.45;1.02;;;;;;;;;;5066234;28;20048;-61
2022/01/02 08:33:24;;;;;;;6.70;1.10;;;;;;;;;;5072346;28;20043;-61
2022/01/02 08:35:51;;;;;;;5.72;0.82;;;;;;;;;;5072678;28;20081;-61
2022/01/02 08:38:18;;;;;;;3.70;1.13;;;;;;;;;;5074204;28;20064;-61
2022/01/02 08:40:45;;;;;;;5.30;1.10;;;;;;;;;;5073501;28;20392;-62
2022/01/02 08:43:12;;;;;;;5.68;1.20;;;;;;;;;;5073711;28;20028;-61
2022/01/02 08:45:39;;;;;;;3.38;1.08;;;;;;;;;;5072797;28;20028;-61
2022/01/02 08:48:07;;;;;;;4.32;1.20;;;;;;;;;;5071934;28;20066;-62
2022/01/02 08:50:34;;;;;;;3.30;1.08;;;;;;;;;;5073771;28;20037;-61
2022/01/02 08:53:01;;;;;;;4.15;1.38;;;;;;;;;;5072886;28;20100;-61
2022/01/02 08:55:28;;;;;;;3.85;0.88;;;;;;;;;;5073805;28;20428;-61
2022/01/02 08:57:55;;;;;;;3.42;0.95;;;;;;;;;;5072300;28;20107;-61
2022/01/02 09:00:23;;;;;;;3.72;1.10;;;;;;;;;;5072466;28;20059;-61
2022/01/02 09:02:50;;;;;;;7.32;1.15;;;;;;;;;;5072911;28;20021;-61
2022/01/02 09:05:18;;;;;;;4.07;1.35;;;;;;;;;;5073545;28;20583;-61
2022/01/02 09:07:45;;;;;;;3.00;0.90;;;;;;;;;;5074013;28;20431;-62
2022/01/02 09:10:15;;;;;;;3.28;1.00;;;;;;;;;;5071502;28;20388;-61
2022/01/02 09:12:42;;;;;;;2.72;0.73;;;;;;;;;;5072107;28;20106;-61
2022/01/02 09:15:09;;;;;;;3.85;1.00;;;;;;;;;;5073578;28;20475;-61
2022/01/02 09:17:36;;;;;;;2.80;1.20;;;;;;;;;;5073243;28;20060;-62
2022/01/02 09:20:03;;;;;;;3.58;1.08;;;;;;;;;;5073365;28;20103;-61
2022/01/02 09:22:30;;;;;;;3.05;1.13;;;;;;;;;;5070699;28;20035;-61
2022/01/02 09:24:57;;;;;;;6.97;1.25;;;;;;;;;;5072947;28;20120;-61
2022/01/02 09:27:24;;;;;;;3.80;0.85;;;;;;;;;;5073142;28;20472;-61
2022/01/02 09:29:51;;;;;;;4.55;1.00;;;;;;;;;;5073098;28;20056;-61
2022/01/02 09:32:18;;;;;;;2.92;1.02;;;;;;;;;;5072408;28;20107;-61
2022/01/02 09:34:46;;;;;;;3.00;0.93;;;;;;;;;;5070457;28;20059;-61
2022/01/02 09:37:13;;;;;;;4.95;1.23;;;;;;;;;;5073173;28;20071;-61
2022/01/02 09:39:40;;;;;;;3.40;1.27;;;;;;;;;;5073167;28;20021;-61
2022/01/02 09:42:07;;;;;;;4.47;1.02;;;;;;;;;;5070817;28;20417;-60
2022/01/02 09:44:34;;;;;;;4.40;0.82;;;;;;;;;;5072871;28;20111;-61
2022/01/02 09:47:01;;;;;;;4.55;1.17;;;;;;;;;;5070036;28;20499;-62
2022/01/02 09:49:28;;;;;;;5.00;1.10;;;;;;;;;;5072691;28;20031;-63
2022/01/02 09:51:55;;;;;;;3.78;0.98;;;;;;;;;;5072836;28;20033;-62
2022/01/02 09:54:23;;;;;;;3.35;1.13;;;;;;;;;;5071602;28;20104;-61
2022/01/02 09:56:50;;;;;;;6.88;1.30;;;;;;;;;;5072405;28;20078;-61
2022/01/02 09:59:17;;;;;;;3.33;0.90;;;;;;;;;;5070649;28;20032;-61
2022/01/02 10:01:44;;;;;;;1.60;0.80;;;;;;;;;;5072119;28;20035;-62
2022/01/02 10:04:11;;;;;;;2.55;1.33;;;;;;;;;;5072441;28;20580;-60
2022/01/02 10:06:39;;;;;;;2.75;1.00;;;;;;;;;;5072486;28;20028;-62
2022/01/02 10:09:10;;;;;;;5.28;1.98;;;;;;;;;;5071927;28;20039;-61
2022/01/02 10:11:40;;;;;;;6.10;1.30;;;;;;;;;;5070876;28;20037;-61
2022/01/02 10:14:09;;;;;;;5.72;0.98;;;;;;;;;;5071167;28;20487;-61
2022/01/02 10:16:38;;;;;;;3.95;1.10;;;;;;;;;;5072162;28;20040;-65
2022/01/02 10:19:18;;;;;;;3.95;1.38;;;;;;;;;;5072299;28;20032;-65
2022/01/02 10:21:54;;;;;;;3.13;1.20;;;;;;;;;;5069961;28;20039;-65
2022/01/02 10:24:26;;;;;;;5.10;1.92;;;;;;;;;;5070870;28;20480;-65
2022/01/02 10:27:05;;;;;;;4.70;0.90;;;;;;;;;;5071734;28;20312;-66
2022/01/02 10:29:42;;;;;;;4.10;1.00;;;;;;;;;;5071736;28;20385;-64
2022/01/02 10:32:24;;;;;;;3.70;0.95;;;;;;;;;;5071569;28;20484;-63
2022/01/02 10:34:51;;;;;;;;;;;;;;;;;;5069580;28;20063;-65
2022/01/02 10:37:27;;;;;;;1.73;0.80;;;;;;;;;;5071220;28;19909;-64
2022/01/02 10:39:54;;;;;;;5.15;0.95;;;;;;;;;;5071764;28;20511;-64
2022/01/02 10:42:21;;;;;;;3.65;1.33;;;;;;;;;;5070954;28;20032;-61
2022/01/02 10:44:49;;;;;;;5.07;1.10;;;;;;;;;;5071397;28;20025;-65
2022/01/02 10:47:21;;;;;;;3.10;0.90;;;;;;;;;;5069434;28;20120;-62
2022/01/02 10:49:48;;;;;;;5.05;1.77;;;;;;;;;;5071539;28;20059;-64
2022/01/02 10:52:18;;;;;;;4.22;1.13;;;;;;;;;;5071630;28;20044;-62
2022/01/02 10:54:45;;;;;;;5.07;0.93;;;;;;;;;;5070355;28;20031;-64
2022/01/02 10:57:13;;;;;;;5.13;0.95;;;;;;;;;;5070962;28;20027;-62
2022/01/02 10:59:40;;;;;;;1.70;0.82;;;;;;;;;;5070099;28;20035;-63
2022/01/02 11:02:09;;;;;;;4.93;1.15;;;;;;;;;;5070924;28;20101;-64
2022/01/02 11:04:36;;;;;;;4.65;1.42;;;;;;;;;;5071307;28;20028;-62
2022/01/02 11:07:03;;;;;;;2.58;0.93;;;;;;;;;;5071582;28;20020;-61
2022/01/02 11:09:32;;;;;;;7.20;1.10;;;;;;;;;;5070426;28;20024;-61
2022/01/02 11:11:59;;;;;;;3.95;0.80;;;;;;;;;;5070020;28;20384;-61
2022/01/02 11:14:26;;;;;;;4.75;1.30;;;;;;;;;;5069429;28;20479;-61
2022/01/02 11:16:53;;;;;;;3.25;0.90;;;;;;;;;;5070884;28;20059;-62
2022/01/02 11:19:20;;;;;;;4.03;0.80;;;;;;;;;;5070566;28;20021;-61
2022/01/02 11:21:48;;;;;;;1.85;0.85;;;;;;;;;;5069731;28;20025;-61
2022/01/02 11:24:19;;;;;;;2.85;0.70;;;;;;;;;;5070111;28;20028;-61
2022/01/02 11:26:57;;;;;;;5.85;1.02;;;;;;;;;;5071103;28;20519;-62
2022/01/02 11:29:27;;;;;;;2.35;1.05;;;;;;;;;;5071149;28;20028;-61
2022/01/02 11:31:55;;;;;;;4.75;0.93;;;;;;;;;;5070919;28;20095;-61
2022/01/02 11:34:29;;;;;;;1.70;0.70;;;;;;;;;;5068226;28;20388;-61
2022/01/02 11:37:14;;;;;;;2.97;0.80;;;;;;;;;;5070970;28;20034;-62
2022/01/02 11:39:52;;;;;;;3.13;1.10;;;;;;;;;;5069858;28;20025;-61
2022/01/02 11:42:38;;;;;;;4.20;1.02;;;;;;;;;;5070967;28;20108;-62
2022/01/02 11:45:37;;;;;;;1.67;0.88;;;;;;;;;;5070125;28;20133;-61
2022/01/02 11:48:23;;;;;;;1.90;0.98;;;;;;;;;;5068251;28;20063;-61
2022/01/02 11:50:50;;;;;;;2.65;0.80;;;;;;;;;;5070827;28;20119;-60
2022/01/02 11:53:19;;;;;;;2.75;1.00;;;;;;;;;;5070212;28;20545;-63
2022/01/02 11:55:49;;;;;;;2.42;1.20;;;;;;;;;;5070808;28;20144;-60
2022/01/02 11:58:35;;;;;;;2.60;1.02;;;;;;;;;;5069087;28;20249;-62
2022/01/02 12:01:02;;;;;;;2.80;0.85;;;;;;;;;;5070915;28;20029;-64
2022/01/02 12:03:41;;;;;;;4.47;1.05;;;;;;;;;;5070346;28;20047;-64
2022/01/02 12:06:32;;;;;;;2.75;1.13;;;;;;;;;;5070461;28;20029;-64
2022/01/02 12:08:59;;;;;;;2.33;1.10;;;;;;;;;;5070250;28;20453;-64
2022/01/02 12:11:32;;;;;;;5.05;0.98;;;;;;;;;;5068927;28;20037;-63
2022/01/02 12:14:10;;;;;;;4.55;1.10;;;;;;;;;;5068898;28;20025;-64
2022/01/02 12:16:42;;;;;;;7.28;1.35;;;;;;;;;;5070642;28;20024;-65
2022/01/02 12:19:09;;;;;;;3.38;1.35;;;;;;;;;;5070574;28;20469;-65
2022/01/02 12:21:36;;;;;;;5.97;1.02;;;;;;;;;;5069258;28;20431;-65
2022/01/02 12:24:12;;;;;;;2.20;1.02;;;;;;;;;;5069150;28;20035;-65
2022/01/02 12:26:39;;;;;;;3.08;1.10;;;;;;;;;;5070566;28;20051;-65
2022/01/02 12:29:13;;;;;;;4.88;1.13;;;;;;;;;;5070484;28;20024;-61
2022/01/02 12:31:41;;;;;;;3.05;1.05;;;;;;;;;;5069716;28;20060;-63
2022/01/02 12:34:10;;;;;;;2.65;1.00;;;;;;;;;;5068235;28;20384;-61
2022/01/02 12:36:40;;;;;;;3.40;1.20;;;;;;;;;;5070128;28;20023;-63
2022/01/02 12:39:12;;;;;;;4.00;1.00;;;;;;;;;;5072811;28;20024;-62
2022/01/02 12:41:44;;;;;;;4.50;1.20;;;;;;;;;;5074225;28;20081;-64
2022/01/02 12:44:15;;;;;;;4.43;1.67;;;;;;;;;;5073282;28;20511;-61
2022/01/02 12:46:42;;;;;;;2.83;1.15;;;;;;;;;;5071803;28;20607;-64
2022/01/02 12:49:11;;;;;;;3.60;1.40;;;;;;;;;;5072437;28;20032;-64
2022/01/02 12:51:40;;;;;;;6.57;1.40;;;;;;;;;;5073773;28;20463;-64
2022/01/02 12:54:08;;;;;;;1.80;1.10;;;;;;;;;;5073773;28;20484;-63
2022/01/02 12:56:37;;;;;;;6.97;1.58;;;;;;;;;;5073695;28;20024;-64
2022/01/02 12:59:20;;;;;;;5.13;1.30;;;;;;;;;;5071750;28;20020;-64
2022/01/02 13:01:50;;;;;;;6.05;1.50;;;;;;;;;;5073741;28;20054;-64
2022/01/02 13:04:17;;;;;;;3.08;1.20;;;;;;;;;;5072649;28;20029;-64
2022/01/02 13:06:47;;;;;;;6.07;1.35;;;;;;;;;;5073576;28;20016;-63
2022/01/02 13:09:40;;;;;;;3.35;1.23;;;;;;;;;;5072738;28;20028;-65
2022/01/02 13:12:11;;;;;;;4.07;1.30;;;;;;;;;;5071943;28;20115;-64
2022/01/02 13:14:43;;;;;;;2.13;1.20;;;;;;;;;;5072518;28;20035;-64
2022/01/02 13:17:16;;;;;;;1.92;1.20;;;;;;;;;;5073523;28;20019;-64
2022/01/02 13:19:47;;;;;;;2.55;1.15;;;;;;;;;;5073481;28;20024;-64
2022/01/02 13:22:19;;;;;;;1.55;0.93;;;;;;;;;;5071432;28;20040;-64
2022/01/02 13:24:46;;;;;;;3.20;1.33;;;;;;;;;;5072073;28;20115;-66
2022/01/02 13:27:13;;;;;;;3.53;1.42;;;;;;;;;;5073268;28;20346;-64
2022/01/02 13:29:40;;;;;;;3.95;1.33;;;;;;;;;;5073019;28;20027;-63
2022/01/02 13:32:15;;;;;;;5.38;1.05;;;;;;;;;;5072570;28;20450;-64
2022/01/02 13:34:43;;;;;;;3.45;1.25;;;;;;;;;;5070411;28;20124;-66
2022/01/02 13:37:10;;;;;;;3.42;1.40;;;;;;;;;;5073390;28;20412;-64
2022/01/02 13:39:40;;;;;;;3.28;1.00;;;;;;;;;;5072920;28;20020;-64
2022/01/02 13:42:08;;;;;;;1.95;1.00;;;;;;;;;;5072746;28;20548;-64
2022/01/02 13:44:52;;;;;;;6.95;1.70;;;;;;;;;;5072077;28;20483;-61
2022/01/02 13:47:19;;;;;;;6.80;1.42;;;;;;;;;;5071215;28;20025;-65
2022/01/02 13:49:52;;;;;;;2.65;1.30;;;;;;;;;;5072773;28;20110;-62
2022/01/02 13:52:22;;;;;;;5.25;1.77;;;;;;;;;;5072751;28;20078;-62
2022/01/02 13:54:49;;;;;;;4.15;1.50;;;;;;;;;;5072177;28;20021;-62
2022/01/02 13:57:17;;;;;;;2.22;1.15;;;;;;;;;;5071250;28;20047;-64
2022/01/02 13:59:44;;;;;;;3.17;1.08;;;;;;;;;;5071209;28;20100;-62
2022/01/02 14:02:12;;;;;;;5.47;1.35;;;;;;;;;;5072739;28;20024;-62
2022/01/02 14:04:54;;;;;;;6.07;1.50;;;;;;;;;;5071954;28;20491;-64
2022/01/02 14:07:22;;;;;;;2.67;1.33;;;;;;;;;;5070650;28;20028;-61
2022/01/02 14:09:51;;;;;;;2.47;1.08;;;;;;;;;;5070889;28;20469;-62
2022/01/02 14:12:20;;;;;;;4.00;1.33;;;;;;;;;;5071251;28;20472;-61
2022/01/02 14:14:50;;;;;;;6.40;1.70;;;;;;;;;;5071739;28;20017;-62
2022/01/02 14:20:16;;;;;;;3.30;1.75;;;;;;;;;;5075785;28;20540;-64
2022/01/02 14:22:44;;;;;;;2.90;1.30;;;;;;;;;;5070008;28;20028;-64
2022/01/02 14:25:11;;;;;;;2.78;1.20;;;;;;;;;;5071518;28;20021;-64
2022/01/02 14:27:38;;;;;;;4.10;2.00;;;;;;;;;;5071782;28;20116;-63
2022/01/02 14:30:07;;;;;;;7.03;1.70;;;;;;;;;;5071679;28;20452;-64
2022/01/02 14:32:34;;;;;;;2.70;1.52;;;;;;;;;;5071742;28;20056;-61
2022/01/02 14:35:03;;;;;;;4.82;1.55;;;;;;;;;;5068629;28;20040;-64
2022/01/02 14:37:31;;;;;;;5.55;1.58;;;;;;;;;;5071650;28;20486;-62
2022/01/02 14:39:58;;;;;;;3.95;1.40;;;;;;;;;;5071674;28;20493;-62
2022/01/02 14:42:26;;;;;;;2.65;1.40;;;;;;;;;;5071908;28;20399;-62
2022/01/02 14:44:53;;;;;;;4.80;1.38;;;;;;;;;;5070272;28;20021;-63
2022/01/02 14:47:20;;;;;;;1.65;1.10;;;;;;;;;;5070122;28;20132;-63
2022/01/02 14:49:47;;;;;;;6.82;1.83;;;;;;;;;;5070358;28;20021;-61
2022/01/02 14:52:14;;;;;;;2.58;1.20;;;;;;;;;;5071686;28;20484;-65
2022/01/02 14:54:41;;;;;;;4.10;1.60;;;;;;;;;;5071269;28;20032;-61
2022/01/02 14:57:10;;;;;;;2.40;1.50;;;;;;;;;;5069927;28;20422;-63